Time;durP1;ratioP1;P1;durP2;ratioP2;P2;SDS_P1;SDS_P2;PMS_P1;PMS_P2;Temp;Humidity;BMP_temperature;BMP_pressure;BME280_temperature;BME280_humidity;BME280_pressure;Samples;Min_cycle;Max_cycle;Signal;HPM_P1;HPM_P2
2021/12/02 00:02:20;;;;;;;;;3.60;3.60;;;;;10.95;42.35;98488.13;4918411;28;8887;-78
2021/12/02 00:04:50;;;;;;;;;2.80;2.80;;;;;11.13;41.59;98490.38;4975366;28;9282;-81
2021/12/02 00:07:19;;;;;;;;;7.60;4.00;;;;;11.02;41.82;98489.72;4956065;28;8866;-79
2021/12/02 00:09:48;;;;;;;;;4.00;3.20;;;;;10.98;41.65;98483.69;4961160;28;8867;-80
2021/12/02 00:12:17;;;;;;;;;2.20;2.20;;;;;11.12;41.71;98476.47;5008239;28;8867;-82
2021/12/02 00:14:48;;;;;;;;;2.60;2.60;;;;;11.28;41.47;98482.22;5009568;28;8867;-79
2021/12/02 00:17:21;;;;;;;;;3.60;3.00;;;;;11.32;41.18;98481.28;5012716;28;8876;-79
2021/12/02 00:23:14;;;;;;;;;1.60;1.60;;;;;11.22;41.23;98469.31;5011309;28;8864;-80
2021/12/02 00:25:44;;;;;;;;;2.40;2.00;;;;;11.25;41.47;98465.78;4930989;28;9019;-83
2021/12/02 00:28:13;;;;;;;;;2.60;2.60;;;;;11.22;42.36;98469.31;5008234;28;8891;-78
2021/12/02 00:30:43;;;;;;;;;3.40;3.40;;;;;11.06;42.11;98468.78;5010520;28;8856;-80
2021/12/02 00:33:14;;;;;;;;;2.20;2.00;;;;;11.11;41.64;98469.53;5025924;28;8888;-82
2021/12/02 00:35:44;;;;;;;;;1.00;1.00;;;;;11.04;41.99;98465.34;5038987;28;8865;-79
2021/12/02 00:38:15;;;;;;;;;0.80;0.80;;;;;11.06;42.11;98455.72;5047254;28;8978;-78
2021/12/02 00:40:44;;;;;;;;;1.00;1.00;;;;;10.93;42.39;98462.06;5064532;28;8853;-82
2021/12/02 00:43:13;;;;;;;;;3.20;3.00;;;;;10.88;42.42;98462.16;5048786;28;8853;-78
2021/12/02 00:45:46;;;;;;;;;2.00;1.20;;;;;10.90;42.45;98456.91;5047597;28;9720;-78
2021/12/02 00:48:15;;;;;;;;;2.00;2.00;;;;;10.81;42.34;98452.75;5047336;28;8875;-79
2021/12/02 00:50:50;;;;;;;;;0.40;0.40;;;;;10.70;42.94;98452.94;5053267;28;8852;-81
2021/12/02 00:53:21;;;;;;;;;2.00;2.00;;;;;10.69;43.00;98456.41;5027559;28;9010;-78
2021/12/02 00:55:52;;;;;;;;;1.00;1.00;;;;;10.80;42.88;98445.78;5011352;28;9710;-78
2021/12/02 00:58:23;;;;;;;;;2.60;2.60;;;;;10.82;42.83;98440.56;5044062;28;9621;-79
2021/12/02 01:00:54;;;;;;;;;1.40;1.40;;;;;10.68;42.88;98444.28;5044611;28;8856;-82
2021/12/02 01:03:23;;;;;;;;;2.00;1.40;;;;;10.69;43.30;98437.31;5044698;28;8944;-78
2021/12/02 01:05:52;;;;;;;;;1.60;1.60;;;;;10.77;42.94;98434.56;5011477;28;8888;-83
2021/12/02 01:08:21;;;;;;;;;1.80;1.00;;;;;10.71;43.21;98435.53;5060639;28;9644;-79
2021/12/02 01:10:50;;;;;;;;;2.00;2.00;;;;;10.66;43.09;98437.38;5027689;28;8867;-81
2021/12/02 01:13:20;;;;;;;;;1.00;1.00;;;;;10.60;43.61;98429.66;5044037;28;8997;-79
2021/12/02 01:15:50;;;;;;;;;3.60;2.60;;;;;10.67;43.44;98423.47;5044522;28;8986;-83
2021/12/02 01:18:21;;;;;;;;;0.80;0.80;;;;;10.62;43.91;98430.50;5055396;28;8868;-86
2021/12/02 01:20:53;;;;;;;;;2.40;1.60;;;;;10.63;43.59;98421.81;5032869;28;8975;-82
2021/12/02 01:23:25;;;;;;;;;1.40;1.40;;;;;10.72;43.64;98413.81;5015176;28;8873;-81
2021/12/02 01:25:59;;;;;;;;;2.80;2.80;;;;;10.82;43.35;98411.88;5053918;28;8865;-80
2021/12/02 01:28:29;;;;;;;;;1.60;1.60;;;;;10.72;43.56;98414.66;5051349;28;9603;-82
2021/12/02 01:30:59;;;;;;;;;2.00;2.00;;;;;10.75;43.70;98405.91;5033504;28;8845;-78
2021/12/02 01:33:29;;;;;;;;;2.00;2.00;;;;;10.81;43.64;98413.63;5049435;28;8979;-81
2021/12/02 01:36:01;;;;;;;;;3.60;3.60;;;;;10.74;43.78;98393.78;5049612;28;8962;-80
2021/12/02 01:38:31;;;;;;;;;1.00;1.00;;;;;10.69;43.76;98396.47;5052657;28;8945;-82
2021/12/02 01:41:03;;;;;;;;;2.80;2.80;;;;;10.66;44.10;98398.25;5053612;28;8881;-81
2021/12/02 01:43:50;;;;;;;;;2.00;2.00;;;;;10.71;44.27;98394.66;5036084;28;8864;-79
2021/12/02 01:46:21;;;;;;;;;2.40;2.40;;;;;10.88;43.80;98396.94;4938825;28;8974;-78
2021/12/02 01:49:01;;;;;;;;;2.00;2.00;;;;;10.73;44.11;98392.88;4936244;28;8937;-81
2021/12/02 01:51:30;;;;;;;;;2.80;2.80;;;;;10.73;44.11;98392.03;4965248;28;8967;-80
2021/12/02 01:54:06;;;;;;;;;0.00;0.00;;;;;10.79;43.89;98388.44;4967696;28;8863;-78
2021/12/02 01:56:43;;;;;;;;;3.20;2.40;;;;;10.77;43.86;98387.63;4954353;28;8950;-78
2021/12/02 01:59:16;;;;;;;;;2.40;2.40;;;;;10.64;44.38;98376.56;4954844;28;9054;-77
2021/12/02 02:01:46;;;;;;;;;2.00;2.00;;;;;10.76;44.18;98372.88;4985910;28;9645;-80
2021/12/02 02:04:18;;;;;;;;;2.60;2.00;;;;;10.79;44.01;98376.25;4957611;28;8857;-80
2021/12/02 02:06:57;;;;;;;;;4.40;3.60;;;;;10.78;44.36;98378.94;4957743;28;8880;-81
2021/12/02 02:09:28;;;;;;;;;2.60;2.20;;;;;10.93;43.56;98382.06;4957733;28;8873;-79
2021/12/02 02:11:57;;;;;;;;;2.20;1.20;;;;;10.84;44.39;98381.41;4974382;28;8993;-78
2021/12/02 02:14:28;;;;;;;;;1.00;0.60;;;;;10.97;43.92;98387.22;4959630;28;8939;-80
2021/12/02 02:16:59;;;;;;;;;1.00;1.00;;;;;11.07;43.83;98386.97;4962301;28;8892;-78
2021/12/02 02:19:31;;;;;;;;;2.00;2.00;;;;;10.90;44.32;98382.13;4974730;28;8863;-81
2021/12/02 02:22:01;;;;;;;;;2.00;1.60;;;;;10.95;43.80;98379.44;4954739;28;8908;-78
2021/12/02 02:24:31;;;;;;;;;1.20;1.20;;;;;11.09;43.60;98373.91;4999863;28;8883;-79
2021/12/02 02:26:59;;;;;;;;;2.80;2.00;;;;;11.03;43.59;98359.25;5031346;28;8984;-79
2021/12/02 02:29:28;;;;;;;;;2.40;2.40;;;;;10.90;43.86;98358.66;5029661;28;9001;-82
2021/12/02 02:31:57;;;;;;;;;1.20;1.20;;;;;10.81;44.14;98365.81;5032330;28;9056;-80
2021/12/02 02:34:26;;;;;;;;;2.00;2.00;;;;;10.70;44.25;98366.06;5033451;28;8991;-79
2021/12/02 02:36:56;;;;;;;;;3.00;1.40;;;;;10.74;44.36;98357.28;5050702;28;8860;-80
2021/12/02 02:39:29;;;;;;;;;2.20;2.20;;;;;10.64;44.52;98356.59;5049897;28;8921;-81
2021/12/02 02:41:59;;;;;;;;;3.00;2.00;;;;;10.53;44.91;98356.81;5008730;28;8889;-80
2021/12/02 02:44:30;;;;;;;;;3.00;3.00;;;;;10.46;45.26;98360.41;4976420;28;8874;-81
2021/12/02 02:46:59;;;;;;;;;2.00;2.00;;;;;10.44;45.68;98358.75;5007851;28;8870;-81
2021/12/02 02:49:28;;;;;;;;;2.80;2.00;;;;;10.29;45.73;98362.47;4972156;28;8901;-79
2021/12/02 02:51:57;;;;;;;;;2.00;1.00;;;;;10.24;46.39;98356.47;5009130;28;8850;-78
2021/12/02 02:54:27;;;;;;;;;2.40;1.00;;;;;10.44;45.58;98343.09;5008300;28;8847;-79
2021/12/02 02:57:03;;;;;;;;;2.20;2.20;;;;;10.44;46.02;98346.56;4992092;28;8980;-81
2021/12/02 02:59:39;;;;;;;;;2.20;1.40;;;;;10.33;46.07;98345.91;4989453;28;8838;-81
2021/12/02 03:02:16;;;;;;;;;2.00;1.20;;;;;10.40;46.06;98346.66;4958497;28;8866;-77
2021/12/02 03:04:54;;;;;;;;;1.00;1.00;;;;;10.42;45.77;98339.66;4970519;28;8904;-78
2021/12/02 03:07:28;;;;;;;;;2.00;2.00;;;;;10.33;45.94;98333.72;4987441;28;9003;-77
2021/12/02 03:10:09;;;;;;;;;1.00;1.00;;;;;10.29;46.39;98325.97;4971989;28;9596;-81
2021/12/02 03:12:41;;;;;;;;;0.60;0.60;;;;;10.43;46.15;98331.78;4967148;28;8868;-78
2021/12/02 03:17:53;;;;;;;;;3.40;2.60;;;;;10.50;46.20;98328.19;4914357;29;9042;-78
2021/12/02 03:20:22;;;;;;;;;2.00;2.00;;;;;10.56;45.96;98327.19;4902964;29;8839;-78
2021/12/02 03:22:51;;;;;;;;;1.00;1.00;;;;;10.59;45.81;98334.13;4933228;28;9549;-80
2021/12/02 03:25:21;;;;;;;;;1.40;1.00;;;;;10.60;45.87;98317.56;4930263;29;9005;-79
2021/12/02 03:27:57;;;;;;;;;1.40;1.40;;;;;10.69;45.71;98315.63;4930310;29;9092;-79
2021/12/02 03:30:26;;;;;;;;;1.00;1.00;;;;;10.74;45.54;98310.34;4928680;28;8961;-78
2021/12/02 03:32:54;;;;;;;;;0.60;0.60;;;;;10.63;45.94;98312.31;4969328;28;8863;-77
2021/12/02 03:35:23;;;;;;;;;1.20;1.20;;;;;10.60;46.15;98308.00;4967783;28;8857;-77
2021/12/02 03:37:52;;;;;;;;;1.20;1.20;;;;;10.53;46.49;98315.09;4938797;28;8943;-80
2021/12/02 03:40:22;;;;;;;;;1.80;1.80;;;;;10.57;46.11;98307.19;4949896;28;8853;-81
2021/12/02 03:42:54;;;;;;;;;1.80;0.80;;;;;10.58;45.81;98311.53;4951439;28;8865;-79
2021/12/02 03:45:43;;;;;;;;;1.60;1.60;;;;;10.55;46.03;98309.88;4922370;28;9789;-78
2021/12/02 03:48:11;;;;;;;;;1.00;0.00;;;;;10.59;46.22;98311.50;4936511;28;8857;-79
2021/12/02 03:50:40;;;;;;;;;0.40;0.40;;;;;10.58;46.24;98307.19;4949813;28;8989;-83
2021/12/02 03:53:09;;;;;;;;;1.60;1.00;;;;;10.70;46.09;98298.25;4952546;28;8866;-78
2021/12/02 03:55:39;;;;;;;;;0.00;0.00;;;;;10.64;46.14;98293.16;4963570;28;8878;-80
2021/12/02 03:58:08;;;;;;;;;1.20;0.00;;;;;10.62;46.07;98295.78;5027926;28;8864;-78
2021/12/02 04:00:36;;;;;;;;;1.20;1.20;;;;;10.82;45.70;98286.69;4994552;28;8856;-80
2021/12/02 04:03:05;;;;;;;;;2.40;1.20;;;;;10.84;45.71;98290.97;5068141;28;8845;-79
2021/12/02 04:05:34;;;;;;;;;1.00;1.00;;;;;10.78;45.79;98280.69;5048481;28;8845;-78
2021/12/02 04:08:03;;;;;;;;;1.00;1.00;;;;;10.84;45.88;98282.31;5046928;28;8864;-78
2021/12/02 04:10:32;;;;;;;;;1.00;1.00;;;;;10.78;46.11;98283.31;5047482;28;8928;-81
2021/12/02 04:13:08;;;;;;;;;0.80;0.80;;;;;10.86;45.79;98283.97;4997452;28;8973;-78
2021/12/02 04:15:39;;;;;;;;;1.00;1.00;;;;;10.78;45.53;98279.84;5061347;28;8899;-78
2021/12/02 04:18:09;;;;;;;;;1.00;1.00;;;;;10.67;46.34;98278.31;5062183;28;8882;-80
2021/12/02 04:20:37;;;;;;;;;1.00;1.00;;;;;10.64;46.50;98272.28;5029505;28;8884;-80
2021/12/02 04:23:06;;;;;;;;;0.00;0.00;;;;;10.67;46.26;98283.53;5012824;28;8874;-79
2021/12/02 04:25:35;;;;;;;;;1.00;1.00;;;;;10.72;46.40;98275.63;5045848;28;8850;-80
2021/12/02 04:28:05;;;;;;;;;1.00;1.00;;;;;10.80;45.89;98276.31;5046536;28;8979;-78
2021/12/02 04:30:34;;;;;;;;;1.60;1.60;;;;;10.76;46.10;98277.25;5047856;28;8907;-79
2021/12/02 04:33:02;;;;;;;;;0.80;0.80;;;;;10.74;46.11;98271.22;5033258;28;8911;-79
2021/12/02 04:35:31;;;;;;;;;3.00;2.80;;;;;10.77;46.57;98280.72;5046909;28;8862;-79
2021/12/02 04:38:00;;;;;;;;;1.40;1.20;;;;;10.75;46.41;98275.53;5015372;28;9004;-81
2021/12/02 04:40:29;;;;;;;;;2.00;2.00;;;;;10.81;46.15;98271.94;5034155;28;8846;-81
2021/12/02 04:42:59;;;;;;;;;2.60;2.60;;;;;10.74;46.62;98271.22;5048985;28;8934;-81
2021/12/02 04:45:29;;;;;;;;;1.20;1.20;;;;;10.85;45.96;98266.63;5030738;28;9622;-81
2021/12/02 04:47:57;;;;;;;;;3.00;2.00;;;;;10.79;46.27;98273.72;5029377;28;9832;-79
2021/12/02 04:50:26;;;;;;;;;2.00;2.00;;;;;10.68;46.55;98267.00;5045207;28;9662;-79
2021/12/02 04:52:55;;;;;;;;;3.80;3.80;;;;;10.70;46.44;98267.81;5027929;28;8858;-79
2021/12/02 04:55:24;;;;;;;;;2.00;2.00;;;;;10.66;46.41;98254.88;5046158;28;9618;-79
2021/12/02 04:57:53;;;;;;;;;2.00;2.00;;;;;10.59;46.71;98263.75;5063434;28;8877;-79
2021/12/02 05:00:22;;;;;;;;;2.20;1.00;;;;;10.66;46.50;98255.75;5046602;28;8908;-78
2021/12/02 05:02:52;;;;;;;;;2.40;2.00;;;;;10.67;46.86;98247.03;4962759;28;13740;-78
2021/12/02 05:05:22;;;;;;;;;6.00;3.00;;;;;10.63;47.41;98261.03;5015195;28;8861;-77
2021/12/02 05:07:53;;;;;;;;;2.80;2.80;;;;;10.69;46.80;98250.44;5064239;28;8873;-79
2021/12/02 05:10:23;;;;;;;;;6.40;3.80;;;;;10.65;47.04;98253.16;5060566;28;8857;-79
2021/12/02 05:12:51;;;;;;;;;5.00;5.00;;;;;10.64;46.97;98251.44;5063539;28;8880;-78
2021/12/02 05:15:20;;;;;;;;;3.00;3.00;;;;;10.72;47.11;98255.59;5047593;28;8879;-84
2021/12/02 05:17:49;;;;;;;;;8.80;8.00;;;;;10.68;47.24;98251.38;5062866;28;8875;-79
2021/12/02 05:20:19;;;;;;;;;4.00;4.00;;;;;10.72;46.87;98247.78;5065912;28;8879;-78
2021/12/02 05:22:48;;;;;;;;;3.40;3.20;;;;;10.71;47.41;98240.00;5030202;28;8883;-81
2021/12/02 05:25:17;;;;;;;;;7.60;4.80;;;;;10.67;47.37;98241.81;5030174;28;8964;-81
2021/12/02 05:27:46;;;;;;;;;3.60;3.60;;;;;10.61;47.77;98235.88;5030706;28;8877;-82
2021/12/02 05:30:15;;;;;;;;;2.20;2.20;;;;;10.56;47.64;98238.56;5051582;28;8959;-85
2021/12/02 05:32:44;;;;;;;;;3.40;3.40;;;;;10.61;47.50;98228.06;5058562;28;8899;-80
2021/12/02 05:35:13;;;;;;;;;5.60;3.00;;;;;10.69;47.41;98226.13;5053854;28;9750;-80
2021/12/02 05:37:43;;;;;;;;;4.40;4.40;;;;;10.78;47.14;98230.31;4993442;28;8974;-82
2021/12/02 05:40:13;;;;;;;;;3.00;3.00;;;;;10.81;47.53;98225.00;4962007;28;9486;-80
2021/12/02 05:42:42;;;;;;;;;2.80;2.80;;;;;10.95;46.75;98222.94;5026795;28;8936;-82
2021/12/02 05:45:11;;;;;;;;;4.00;4.00;;;;;10.84;47.56;98231.00;5026741;28;8893;-81
2021/12/02 05:47:40;;;;;;;;;1.20;1.20;;;;;10.84;47.25;98220.56;4993692;28;8912;-78
2021/12/02 05:50:09;;;;;;;;;4.00;4.00;;;;;10.89;47.33;98223.09;5023275;28;9502;-80
2021/12/02 05:52:38;;;;;;;;;4.40;4.40;;;;;10.88;47.40;98219.59;5006049;28;8864;-79
2021/12/02 05:55:09;;;;;;;;;10.80;9.40;;;;;10.96;47.45;98219.41;4973820;28;8907;-79
2021/12/02 05:57:38;;;;;;;;;7.00;7.00;;;;;11.03;47.28;98223.59;4989314;28;9664;-80
2021/12/02 06:00:09;;;;;;;;;4.80;3.40;;;;;11.14;47.19;98219.91;4973420;28;8885;-80
2021/12/02 06:02:41;;;;;;;;;4.80;3.80;;;;;11.35;46.81;98228.94;4958514;28;8895;-79
2021/12/02 06:05:15;;;;;;;;;6.40;6.40;;;;;11.28;46.87;98220.41;4989464;28;8918;-80
2021/12/02 06:07:45;;;;;;;;;7.40;7.40;;;;;11.23;46.79;98220.53;4974923;28;9978;-78
2021/12/02 06:10:15;;;;;;;;;4.20;3.60;;;;;11.45;46.38;98217.38;5012649;28;8966;-81
2021/12/02 06:12:44;;;;;;;;;6.80;6.60;;;;;11.43;46.51;98208.72;5046201;28;9065;-79
2021/12/02 06:15:13;;;;;;;;;7.80;4.40;;;;;11.30;46.64;98209.06;5021869;28;8846;-81
2021/12/02 06:17:43;;;;;;;;;4.00;4.00;;;;;11.26;46.68;98211.75;5045007;28;9003;-79
2021/12/02 06:20:14;;;;;;;;;3.20;3.20;;;;;11.26;46.59;98217.81;5012615;28;9087;-79
2021/12/02 06:22:43;;;;;;;;;4.20;4.20;;;;;11.16;46.65;98212.88;5013208;28;8852;-79
2021/12/02 06:28:04;;;;;;;;;9.60;9.60;;;;;11.30;46.57;98222.09;5051697;28;8868;-79
2021/12/02 06:30:33;;;;;;;;;8.60;7.80;;;;;11.51;46.16;98220.69;5066558;28;8869;-80
2021/12/02 06:33:02;;;;;;;;;8.60;8.00;;;;;11.62;46.06;98227.38;5050177;28;8845;-80
2021/12/02 06:35:31;;;;;;;;;8.00;5.20;;;;;11.39;46.03;98235.81;5049918;28;8915;-80
2021/12/02 06:38:00;;;;;;;;;7.60;7.60;;;;;11.48;45.42;98239.03;5050223;28;8861;-82
2021/12/02 06:40:29;;;;;;;;;7.00;6.60;;;;;11.50;45.29;98225.94;5033199;28;8869;-80
2021/12/02 06:42:58;;;;;;;;;8.60;7.60;;;;;11.47;46.19;98236.44;5033360;28;8865;-79
2021/12/02 06:45:28;;;;;;;;;8.00;7.40;;;;;11.38;46.46;98232.34;5049353;28;8904;-77
2021/12/02 06:47:59;;;;;;;;;6.60;6.60;;;;;11.31;46.01;98236.00;5032887;28;8865;-80
2021/12/02 06:50:30;;;;;;;;;8.60;4.80;;;;;11.50;45.78;98228.56;5047782;28;8878;-78
2021/12/02 06:52:59;;;;;;;;;9.40;8.00;;;;;11.64;45.86;98231.66;5032004;28;9062;-80
2021/12/02 06:55:28;;;;;;;;;8.20;6.60;;;;;11.51;46.19;98225.91;5031511;28;8890;-80
2021/12/02 06:57:57;;;;;;;;;6.60;5.40;;;;;11.50;46.19;98233.78;5047566;28;8889;-78
2021/12/02 07:00:28;;;;;;;;;4.60;4.40;;;;;11.56;46.29;98235.38;5014762;28;8882;-79
2021/12/02 07:02:57;;;;;;;;;7.80;5.00;;;;;11.51;46.09;98232.88;5027577;28;8872;-81
2021/12/02 07:05:27;;;;;;;;;7.00;5.00;;;;;11.65;45.93;98228.16;5011971;28;8873;-78
2021/12/02 07:07:56;;;;;;;;;7.60;7.20;;;;;11.71;45.73;98234.97;5028520;28;8873;-80
2021/12/02 07:10:25;;;;;;;;;13.40;13.20;;;;;11.61;46.11;98243.97;5028129;28;8864;-77
2021/12/02 07:12:56;;;;;;;;;8.60;8.60;;;;;11.83;46.11;98239.00;5044644;28;8901;-79
2021/12/02 07:15:28;;;;;;;;;9.20;7.00;;;;;11.86;46.04;98239.78;5011215;28;8884;-80
2021/12/02 07:18:00;;;;;;;;;7.80;5.20;;;;;12.12;45.67;98242.59;4971950;28;8854;-78
2021/12/02 07:20:34;;;;;;;;;7.20;6.60;;;;;12.30;45.31;98234.25;4973491;28;8977;-81
2021/12/02 07:23:04;;;;;;;;;7.00;5.60;;;;;12.45;44.38;98236.41;4988260;28;8891;-81
2021/12/02 07:25:34;;;;;;;;;6.60;6.60;;;;;12.60;44.37;98235.09;4940124;28;8956;-78
2021/12/02 07:28:03;;;;;;;;;6.00;6.00;;;;;12.76;43.80;98239.88;5007028;28;8865;-81
2021/12/02 07:30:32;;;;;;;;;9.80;9.60;;;;;12.84;43.74;98236.13;4970865;28;8911;-78
2021/12/02 07:33:04;;;;;;;;;12.80;9.60;;;;;12.93;43.15;98229.78;4978827;28;8868;-82
2021/12/02 07:35:33;;;;;;;;;11.40;10.60;;;;;12.97;43.73;98233.16;5006920;28;9043;-78
2021/12/02 07:38:03;;;;;;;;;10.40;10.20;;;;;12.81;43.37;98230.97;4974949;28;8890;-81
2021/12/02 07:40:39;;;;;;;;;8.80;8.00;;;;;12.77;43.81;98231.97;4975298;28;8846;-80
2021/12/02 07:43:08;;;;;;;;;8.60;8.40;;;;;12.95;43.84;98227.06;4959488;28;8878;-78
2021/12/02 07:45:38;;;;;;;;;11.40;10.00;;;;;12.83;43.45;98226.56;4991055;28;8831;-79
2021/12/02 07:48:09;;;;;;;;;8.20;8.20;;;;;12.86;43.55;98217.78;4975773;28;9055;-79
2021/12/02 07:50:38;;;;;;;;;6.60;6.60;;;;;13.11;44.02;98215.22;4975205;28;8850;-80
2021/12/02 07:53:09;;;;;;;;;16.60;12.60;;;;;13.23;43.46;98221.81;4990678;28;8866;-76
2021/12/02 07:55:41;;;;;;;;;10.40;9.60;;;;;13.29;42.71;98215.53;5000656;28;9862;-81
2021/12/02 07:58:11;;;;;;;;;10.40;6.60;;;;;13.25;42.75;98213.03;5049112;28;8995;-81
2021/12/02 08:00:41;;;;;;;;;9.40;8.80;;;;;13.24;42.42;98210.47;5050330;28;8882;-81
2021/12/02 08:03:13;;;;;;;;;9.60;9.60;;;;;13.29;43.35;98205.06;5019384;28;8862;-79
2021/12/02 08:05:44;;;;;;;;;11.80;10.60;;;;;13.21;43.06;98203.56;5018063;28;9701;-81
2021/12/02 08:08:13;;;;;;;;;7.80;6.40;;;;;13.24;42.40;98205.22;5017780;28;8894;-81
2021/12/02 08:10:41;;;;;;;;;9.00;6.00;;;;;13.46;42.28;98205.41;5029750;28;8857;-78
2021/12/02 08:13:10;;;;;;;;;8.80;8.20;;;;;13.42;42.36;98209.00;5013171;28;8850;-79
2021/12/02 08:15:39;;;;;;;;;8.40;6.40;;;;;13.39;42.58;98214.38;5029414;28;8888;-79
2021/12/02 08:18:08;;;;;;;;;10.00;9.60;;;;;13.57;42.59;98212.88;5013253;28;8889;-81
2021/12/02 08:20:38;;;;;;;;;9.00;7.80;;;;;13.77;42.45;98207.81;5045397;28;8862;-78
2021/12/02 08:23:07;;;;;;;;;14.00;10.60;;;;;13.88;42.13;98202.19;5012783;28;8912;-78
2021/12/02 08:25:35;;;;;;;;;10.80;9.00;;;;;14.17;41.73;98198.50;5012392;28;8898;-80
2021/12/02 08:28:05;;;;;;;;;10.40;10.40;;;;;14.12;41.20;98194.34;5012515;28;8898;-78
2021/12/02 08:30:37;;;;;;;;;12.20;11.20;;;;;14.13;41.42;98194.28;5029665;28;9599;-78
2021/12/02 08:33:08;;;;;;;;;11.80;11.40;;;;;14.26;41.60;98201.72;5047678;28;8941;-77
2021/12/02 08:35:38;;;;;;;;;14.60;11.00;;;;;14.18;41.85;98197.59;5045868;28;8958;-78
2021/12/02 08:38:10;;;;;;;;;14.00;12.00;;;;;14.47;41.00;98202.66;5025209;28;9070;-78
2021/12/02 08:40:40;;;;;;;;;11.40;9.80;;;;;14.55;40.89;98201.44;5009242;28;8865;-79
2021/12/02 08:43:11;;;;;;;;;12.00;10.60;;;;;14.61;40.97;98196.03;5020430;28;8865;-78
2021/12/02 08:45:42;;;;;;;;;15.80;13.80;;;;;14.50;40.91;98207.78;5002488;28;8883;-77
2021/12/02 08:48:12;;;;;;;;;14.00;10.60;;;;;14.65;41.19;98206.38;5007559;28;8864;-78
2021/12/02 08:50:44;;;;;;;;;11.80;9.80;;;;;14.81;40.65;98203.09;5024900;28;8876;-77
2021/12/02 08:53:13;;;;;;;;;17.00;16.40;;;;;15.01;40.53;98204.09;5023968;28;8886;-77
2021/12/02 08:55:43;;;;;;;;;12.00;12.00;;;;;14.97;40.19;98203.34;5025476;28;8876;-79
2021/12/02 08:58:12;;;;;;;;;7.20;6.20;;;;;15.15;40.07;98203.53;4996063;28;9087;-77
2021/12/02 09:00:41;;;;;;;;;8.20;7.00;;;;;15.11;40.01;98201.94;5002055;28;8899;-78
2021/12/02 09:03:14;;;;;;;;;9.40;7.80;;;;;15.29;39.91;98197.69;5009254;28;8899;-77
2021/12/02 09:05:45;;;;;;;;;9.60;9.60;;;;;15.31;39.97;98195.84;4992928;28;8853;-80
2021/12/02 09:08:15;;;;;;;;;10.40;10.40;;;;;15.44;39.70;98181.28;4969619;28;8970;-78
2021/12/02 09:10:44;;;;;;;;;9.00;8.00;;;;;15.52;39.38;98179.22;4984735;28;8880;-79
2021/12/02 09:13:13;;;;;;;;;9.00;7.80;;;;;15.57;39.33;98173.75;4984942;28;8872;-76
2021/12/02 09:15:42;;;;;;;;;9.20;9.00;;;;;15.64;38.97;98169.94;4986745;28;10033;-77
2021/12/02 09:18:11;;;;;;;;;6.80;6.80;;;;;15.50;39.24;98162.66;4990159;28;8985;-78
2021/12/02 09:20:41;;;;;;;;;11.40;10.40;;;;;15.66;39.61;98173.34;5011406;28;8868;-79
2021/12/02 09:23:13;;;;;;;;;12.20;9.00;;;;;15.72;39.30;98172.22;4977551;28;9029;-77
2021/12/02 09:25:42;;;;;;;;;9.60;9.60;;;;;15.58;39.40;98167.59;4993185;28;8848;-78
2021/12/02 09:28:12;;;;;;;;;8.60;7.60;;;;;15.52;39.48;98166.06;5008802;28;9666;-77
2021/12/02 09:30:45;;;;;;;;;8.00;8.00;;;;;15.59;39.50;98161.38;5007932;28;8845;-78
2021/12/02 09:33:14;;;;;;;;;10.20;10.20;;;;;15.57;39.41;98153.56;5007842;28;8845;-78
2021/12/02 09:35:43;;;;;;;;;7.60;6.80;;;;;15.53;39.35;98146.75;5024263;28;8860;-77
2021/12/02 09:38:13;;;;;;;;;11.60;10.80;;;;;15.55;39.28;98144.91;5023580;28;8946;-79
2021/12/02 09:40:44;;;;;;;;;13.00;12.40;;;;;15.63;39.38;98144.56;5061222;28;9000;-76
2021/12/02 09:43:14;;;;;;;;;15.00;12.20;;;;;15.65;39.56;98144.50;5046896;28;9567;-77
2021/12/02 09:45:45;;;;;;;;;6.00;4.60;;;;;15.60;39.26;98140.31;5043414;28;8840;-77
2021/12/02 09:48:14;;;;;;;;;11.40;10.40;;;;;15.67;39.70;98132.16;5061859;28;8872;-76
2021/12/02 09:50:53;;;;;;;;;13.20;11.60;;;;;15.62;39.63;98136.78;5044197;28;8938;-79
2021/12/02 09:53:26;;;;;;;;;5.20;5.00;;;;;15.59;39.64;98138.63;5042366;28;8883;-78
2021/12/02 09:56:03;;;;;;;;;14.40;11.80;;;;;15.65;39.81;98127.00;5028264;28;8907;-78
2021/12/02 09:58:32;;;;;;;;;11.40;9.20;;;;;15.60;39.96;98121.91;5046635;28;8857;-80
2021/12/02 10:01:07;;;;;;;;;14.00;14.00;;;;;15.67;39.68;98112.00;5025044;28;8868;-77
2021/12/02 10:03:39;;;;;;;;;13.00;12.80;;;;;15.71;39.93;98110.94;5036739;28;8889;-77
2021/12/02 10:06:10;;;;;;;;;9.60;8.40;;;;;15.77;39.50;98113.31;5043755;28;8864;-78
2021/12/02 10:08:48;;;;;;;;;7.60;6.80;;;;;15.72;38.97;98101.28;5047069;28;8938;-78
2021/12/02 10:11:29;;;;;;;;;9.20;9.20;;;;;15.88;39.44;98104.06;5007727;28;8957;-80
2021/12/02 10:14:12;;;;;;;;;10.60;10.60;;;;;16.04;38.92;98091.09;5046201;28;8861;-78
2021/12/02 10:16:43;;;;;;;;;10.80;10.80;;;;;15.82;39.45;98086.81;5049217;28;8871;-75
2021/12/02 10:19:15;;;;;;;;;9.00;8.20;;;;;16.05;39.26;98079.66;4995218;28;14254;-77
2021/12/02 10:21:50;;;;;;;;;14.40;13.80;;;;;16.10;38.90;98080.28;5028126;28;8836;-76
2021/12/02 10:24:23;;;;;;;;;8.80;8.80;;;;;16.11;39.15;98067.09;5011431;28;9644;-77
2021/12/02 10:26:55;;;;;;;;;9.00;8.60;;;;;16.13;38.52;98072.28;5028177;28;8927;-74
2021/12/02 10:29:47;;;;;;;;;9.60;8.00;;;;;16.26;38.68;98072.56;5021412;28;8874;-77
2021/12/02 10:32:20;;;;;;;;;11.00;11.00;;;;;16.35;38.86;98069.47;5011739;28;8976;-76
2021/12/02 10:34:52;;;;;;;;;12.20;11.40;;;;;16.46;38.93;98059.28;4983264;28;8865;-77
2021/12/02 10:37:23;;;;;;;;;12.60;10.60;;;;;16.59;38.12;98040.25;5028116;28;8864;-75
2021/12/02 10:40:00;;;;;;;;;12.60;8.80;;;;;16.57;37.84;98042.97;5011053;28;8891;-75
2021/12/02 10:42:32;;;;;;;;;10.40;9.20;;;;;16.61;38.06;98036.63;5011737;28;8853;-76
2021/12/02 10:45:03;;;;;;;;;8.60;8.60;;;;;16.70;37.40;98036.16;5027625;28;8865;-77
2021/12/02 10:47:32;;;;;;;;;8.00;7.40;;;;;16.72;37.82;98033.47;4956979;28;8886;-75
2021/12/02 10:50:07;;;;;;;;;1.00;1.00;;;;;16.76;37.37;98029.75;4986507;28;8877;-78
2021/12/02 10:52:37;;;;;;;;;7.40;7.40;;;;;16.63;37.69;98028.66;4986096;28;9681;-78
2021/12/02 10:55:10;;;;;;;;;13.40;13.20;;;;;16.70;37.76;98023.00;4994151;28;8880;-75
2021/12/02 10:57:45;;;;;;;;;7.00;7.00;;;;;16.41;37.92;98029.72;5027700;28;8856;-77
2021/12/02 11:00:16;;;;;;;;;8.60;8.00;;;;;16.43;38.01;98033.13;5007729;28;9006;-79
2021/12/02 11:02:48;;;;;;;;;3.20;3.00;;;;;16.61;38.06;98017.34;4991409;28;8903;-77
2021/12/02 11:05:21;;;;;;;;;15.60;13.60;;;;;16.54;38.17;98015.03;4958557;28;9697;-75
2021/12/02 11:07:55;;;;;;;;;15.00;14.20;;;;;16.49;37.91;98019.66;4975364;28;8891;-75
2021/12/02 11:10:32;;;;;;;;;10.00;8.60;;;;;16.43;38.61;98013.88;4991346;28;8910;-76
2021/12/02 11:13:01;;;;;;;;;11.60;9.80;;;;;16.44;38.14;98018.19;5007331;28;8899;-79
2021/12/02 11:15:31;;;;;;;;;9.80;9.80;;;;;16.38;38.33;98014.06;4989112;28;8878;-77
2021/12/02 11:18:02;;;;;;;;;11.80;11.40;;;;;16.45;37.82;98004.97;4994323;28;8895;-75
2021/12/02 11:20:33;;;;;;;;;8.60;8.60;;;;;16.43;37.96;98000.72;5039651;28;9007;-75
2021/12/02 11:23:05;;;;;;;;;13.40;12.00;;;;;16.26;38.45;98012.91;5027820;28;9000;-75
2021/12/02 11:25:53;;;;;;;;;8.40;8.00;;;;;16.22;38.54;98008.72;5023944;28;9015;-75
2021/12/02 11:28:25;;;;;;;;;10.00;10.00;;;;;16.40;38.76;98006.13;5033759;28;8923;-76
2021/12/02 11:30:56;;;;;;;;;18.20;18.20;;;;;16.38;39.10;98004.41;5047498;28;8868;-76
2021/12/02 11:33:31;;;;;;;;;15.60;13.40;;;;;16.44;38.20;98000.59;5027320;28;8947;-77
2021/12/02 11:36:00;;;;;;;;;16.20;15.00;;;;;16.45;38.45;97998.84;5010245;28;8874;-75
2021/12/02 11:38:29;;;;;;;;;18.20;17.40;;;;;16.49;38.91;98003.03;5009952;28;8957;-77
2021/12/02 11:41:03;;;;;;;;;11.80;11.60;;;;;16.54;38.53;98001.88;5011049;28;8861;-77
2021/12/02 11:43:35;;;;;;;;;17.00;14.40;;;;;16.59;38.45;98000.78;5008490;28;8869;-79
2021/12/02 11:46:06;;;;;;;;;15.40;15.40;;;;;16.61;38.63;97991.03;5010543;28;8886;-76
2021/12/02 11:48:38;;;;;;;;;13.80;13.80;;;;;16.49;38.60;97984.63;5010269;28;8850;-76
2021/12/02 11:51:09;;;;;;;;;13.20;9.60;;;;;16.49;38.99;97988.09;5026612;28;9535;-77
2021/12/02 11:53:38;;;;;;;;;20.00;18.00;;;;;16.42;39.05;97988.47;5010277;28;9568;-77
2021/12/02 11:56:11;;;;;;;;;14.40;11.20;;;;;16.45;39.19;97983.06;5026931;28;8963;-78
2021/12/02 11:58:40;;;;;;;;;12.80;12.80;;;;;16.49;38.79;97981.97;4994658;28;9516;-77
2021/12/02 12:01:14;;;;;;;;;15.20;14.60;;;;;16.48;38.83;97972.38;4994330;28;8854;-76
2021/12/02 12:03:48;;;;;;;;;19.00;17.20;;;;;16.58;38.66;97976.25;5026662;28;9037;-77
2021/12/02 12:06:24;;;;;;;;;21.00;15.80;;;;;16.61;38.84;97968.19;4994556;28;8896;-76